Bordertown, Nevada
Current Conditions -  °F | °C
As of 2:15 PM on Wednesday 28 Jan 2015 (Local Time) from KRTS Reporting Station
Clear Clear  
Wind Chill: 52°   Ceiling: Unl
Heat Index: 52°   Visibility: 10mi
Dew Point: 27°   Wind: 10mph
Humidity: 38%   Direction: 120°ESE
Pressure: 30.27"   Gusts: NA
Location:  39.7378°N, 119.889°W
Report Text: KRTS 282215Z AUTO 12009KT 10SM CLR 11/M03 A3027 RMK AO2
Loading
Personal Weather Stations






























Interactive Weather Map New forecast layout! Learn more

10-Day Weather Forecast

Advertisements
Track Severe Weather on mobile